Latest Weather Observations for Edithburgh

IDS60801

Issued at 8:31 am CDT Monday 5 December 2016 (issued every 30 minutes, with the page automatically refreshed every 10 minutes)

About weather observations | Map of weather stations | Latest weather observations for SA | Other Formats
Station Details ID: 022046 Name: EDITHBURGH Lat: -35.11 Lon: 137.74 Height: 6.0 m
Data from the previous 72 hours. | See also: Recent months at Edithburgh
Date/Time
CDT
Temp
°C
App
Temp
°C
Dew
Point
°C
Rel
Hum
%
Delta-T
°C
Wind Press
QNH
hPa
Press
MSL
hPa
Rain since
9am
mm
Dir  Spd
km/h
Gust
km/h
Spd
kts
Gust
kts
05/08:30am 17.0 13.0 8.9 59 4.2 SSE 20 28 11 15 1014.1 1014.1 0.0
05/08:00am 16.0 12.3 9.4 65 3.4 S 19 26 10 14 1013.9 1013.9 0.0
05/07:30am 16.1 12.9 9.8 66 3.3 S 17 24 9 13 1013.8 1013.8 0.0
05/07:00am 15.4 11.3 8.7 64 3.4 SSW 20 26 11 14 1013.3 1013.3 0.0
05/06:30am 14.6 10.9 10.0 74 2.4 SSW 20 24 11 13 1013.1 1013.1 0.0
05/06:00am 14.6 10.9 9.6 72 2.6 SSW 19 26 10 14 1012.7 1012.7 0.0
05/05:30am 13.7 11.1 9.4 75 2.2 SSW 13 19 7 10 1012.5 1012.5 0.0
05/05:00am 14.3 11.7 9.4 72 2.5 SSW 13 17 7 9 1012.3 1012.3 0.0
05/04:30am 14.8 11.8 9.1 68 2.9 SSW 15 20 8 11 1012.3 1012.3 0.0
05/04:00am 14.6 12.1 9.6 72 2.6 SW 13 19 7 10 1012.1 1012.1 0.0
05/03:30am 14.8 11.6 9.8 72 2.6 SSW 17 20 9 11 1012.0 1012.0 0.0
05/03:00am 14.8 12.0 10.0 73 2.5 SSW 15 22 8 12 1011.5 1011.5 0.0
05/02:30am 14.8 12.0 10.0 73 2.5 SSW 15 20 8 11 1011.3 1011.3 0.0
05/02:00am 15.2 11.6 10.0 71 2.7 SSW 19 28 10 15 1011.0 1011.0 0.0
05/01:30am 15.3 10.9 8.8 65 3.3 SSW 22 32 12 17 1010.8 1010.8 0.0
05/01:00am 15.6 11.7 10.9 73 2.5 SSW 22 33 12 18 1010.5 1010.5 0.0
05/12:30am 16.2 11.0 10.3 68 3.1 SW 28 39 15 21 1009.9 1009.9 0.0
05/12:00am 16.3 13.3 12.5 78 2.1 WSW 20 30 11 16 1009.7 1009.7 0.0
 
Date/Time
CDT
Temp
°C
App
Temp
°C
Dew
Point
°C
Rel
Hum
%
Delta-T
°C
Wind Press
QNH
hPa
Press
MSL
hPa
Rain since
9am
mm
Dir  Spd
km/h
Gust
km/h
Spd
kts
Gust
kts
04/11:30pm 16.6 14.7 13.0 79 2.0 WSW 15 24 8 13 1009.7 1009.7 0.0
04/11:00pm 16.9 14.3 13.7 81 1.8 WSW 20 32 11 17 1009.5 1009.5 0.0
04/10:30pm 17.0 15.2 14.4 85 1.5 WSW 17 24 9 13 1008.9 1008.9 0.0
04/10:00pm 17.6 14.1 14.5 82 1.8 WSW 26 43 14 23 1008.5 1008.5 0.0
04/09:50pm 17.6 13.7 14.5 82 1.8 WSW 28 46 15 25 1008.3 1008.3 0.0
04/09:30pm 17.6 13.0 14.7 83 1.7 WSW 32 43 17 23 1007.7 1007.7 0.0
04/09:00pm 18.3 14.4 15.4 83 1.7 W 30 39 16 21 1006.9 1006.9 0.0
04/08:30pm 19.4 16.7 15.7 79 2.2 WSW 24 35 13 19 1006.4 1006.4 0.0
04/08:00pm 20.9 18.0 15.0 69 3.5 WSW 24 39 13 21 1005.8 1005.8 0.0
04/07:30pm 23.2 20.0 15.2 60 4.8 W 26 37 14 20 1004.8 1004.8 0.0
04/07:05pm 25.2 21.5 15.9 56 5.7 W 30 50 16 27 1003.6 1003.6 0.0
04/07:00pm 26.8 22.8 16.1 52 6.6 WNW 32 44 17 24 1003.6 1003.6 0.0
04/06:30pm 29.6 25.1 15.5 42 8.7 NW 33 44 18 24 1002.5 1002.5 0.0
04/06:00pm 30.6 26.0 15.0 38 9.6 NW 33 44 18 24 1002.1 1002.1 0.0
04/05:37pm 31.3 26.5 14.7 36 10.2 NW 33 52 18 28 1001.6 1001.6 0.0
04/05:30pm 31.3 25.9 14.9 37 10.1 NW 37 52 20 28 1001.3 1001.3 0.0
04/05:06pm 30.8 28.0 15.3 39 9.5 N 24 50 13 27 1001.7 1001.7 0.0
04/05:04pm 29.2 27.5 16.2 45 8.1 N 20 43 11 23 1001.8 1001.8 0.0
04/05:00pm 23.7 23.7 19.0 75 3.0 NNE 17 26 9 14 1001.9 1001.9 0.0
04/04:30pm 23.3 23.0 19.2 78 2.6 NNE 19 28 10 15 1001.9 1001.9 0.0
04/04:00pm 24.0 22.8 19.3 75 3.0 NNE 24 37 13 20 1001.9 1001.9 0.0
04/03:30pm 24.1 23.2 19.1 73 3.2 NNE 22 39 12 21 1002.5 1002.5 0.0
04/03:00pm 23.1 22.6 19.0 78 2.6 NNE 20 33 11 18 1002.8 1002.8 0.0
04/02:34pm 23.8 21.7 18.9 74 3.1 N 28 46 15 25 1003.3 1003.3 0.0
04/02:30pm 29.1 24.8 15.9 44 8.2 N 33 52 18 28 1003.1 1003.1 0.0
04/02:00pm 28.7 23.2 14.7 42 8.5 N 37 54 20 29 1003.3 1003.3 0.0
04/01:49pm 29.1 23.4 15.3 43 8.4 N 39 57 21 31 1003.6 1003.6 0.0
04/01:30pm 29.0 22.6 15.3 43 8.4 N 43 59 23 32 1003.9 1003.9 0.0
04/01:00pm 29.6 23.2 15.5 42 8.7 NNW 43 69 23 37 1005.0 1005.0 0.0
04/12:40pm 28.3 22.2 15.2 44 8.0 NNW 41 63 22 34 1005.4 1005.4 0.0
04/12:30pm 29.1 22.8 14.6 41 8.8 NNW 41 56 22 30 1005.4 1005.4 0.0
04/12:16pm 29.6 24.2 14.9 40 9.0 NNW 37 59 20 32 1005.5 1005.5 0.0
04/12:00pm 30.0 24.7 15.2 40 9.1 NNW 37 54 20 29 1005.6 1005.6 0.0
04/11:30am 28.8 22.1 15.0 43 8.4 NNW 44 63 24 34 1005.5 1005.5 0.0
04/11:12am 29.0 21.8 14.7 41 8.7 NNW 46 65 25 35 1006.1 1006.1 0.0
04/11:00am 29.8 21.7 14.3 38 9.4 NNW 50 69 27 37 1006.0 1006.0 0.0
04/10:30am 29.3 20.9 13.4 37 9.5 NNW 50 70 27 38 1006.3 1006.3 0.0
04/10:23am 29.3 22.3 13.8 38 9.3 NNW 43 70 23 38 1006.3 1006.3 0.0
04/10:00am 29.5 23.8 14.3 39 9.2 NNW 37 52 20 28 1006.3 1006.3 0.0
04/09:34am 30.1 24.5 14.5 38 9.5 N 37 56 20 30 1006.5 1006.5 0.0
04/09:30am 28.9 22.5 14.3 40 8.8 N 41 56 22 30 1006.4 1006.4 0.0
04/09:09am 28.4 21.9 14.1 41 8.6 NNW 41 61 22 33 1006.6 1006.6 0.0
04/09:00am 28.8 22.2 13.8 39 9.0 NNW 41 54 22 29 1006.7 1006.7 0.0
04/08:41am 27.9 22.4 12.5 38 9.0 N 33 54 18 29 1006.7 1006.7 0.0
04/08:30am 27.0 20.6 12.1 39 8.6 NNW 37 52 20 28 1006.8 1006.8 0.0
04/08:01am 26.6 21.4 11.6 39 8.6 NNW 30 54 16 29 1006.5 1006.5 0.0
04/08:00am 26.6 22.1 11.3 38 8.7 NNW 26 52 14 28 1006.5 1006.5 0.0
04/07:59am 26.3 22.2 11.4 39 8.5 NNW 24 52 13 28 1006.6 1006.6 0.0
04/07:57am 25.1 22.3 11.5 42 7.7 N 17 44 9 24 1006.6 1006.6 0.0
04/07:30am 20.5 19.0 15.3 72 3.1 NNE 17 26 9 14 1006.0 1006.0 0.0
04/07:00am 20.5 19.2 15.8 74 2.8 NNE 17 30 9 16 1006.0 1006.0 0.0
04/06:30am 19.6 20.2 16.8 84 1.7 NNE 9 15 5 8 1005.4 1005.4 0.0
04/06:00am 19.3 19.1 16.7 85 1.6 NNE 13 17 7 9 1005.4 1005.4 0.0
04/05:30am 18.5 19.2 17.0 91 0.9 NE 9 11 5 6 1005.6 1005.6 0.0
04/05:00am 18.3 19.4 16.5 89 1.1 NE 6 7 3 4 1005.9 1005.9 0.0
04/04:30am 18.2 18.5 16.0 87 1.3 NE 9 11 5 6 1006.1 1006.1 0.0
04/04:00am 17.8 17.9 15.6 87 1.3 NE 9 13 5 7 1006.2 1006.2 0.0
04/03:30am 17.6 17.0 15.6 88 1.2 ENE 13 15 7 8 1006.2 1006.2 0.0
04/03:00am 18.0 17.7 15.4 85 1.5 NE 11 13 6 7 1006.9 1006.9 0.0
04/02:30am 16.8 16.4 15.3 91 0.9 ENE 11 13 6 7 1007.4 1007.4 0.0
04/02:00am 16.0 16.1 13.9 87 1.2 ESE 6 6 3 3 1007.6 1007.6 0.0
04/01:30am 15.6 15.4 13.6 88 1.1 E 7 9 4 5 1008.0 1008.0 0.0
04/01:00am 16.7 16.9 14.3 86 1.4 E 6 7 3 4 1008.9 1008.9 0.0
04/12:30am 16.5 16.4 14.0 85 1.4 ESE 7 9 4 5 1009.1 1009.1 0.0
04/12:00am 17.1 16.6 13.9 81 1.8 SSE 9 15 5 8 1009.6 1009.6 0.0
 
Date/Time
CDT
Temp
°C
App
Temp
°C
Dew
Point
°C
Rel
Hum
%
Delta-T
°C
Wind Press
QNH
hPa
Press
MSL
hPa
Rain since
9am
mm
Dir  Spd
km/h
Gust
km/h
Spd
kts
Gust
kts
03/11:30pm 17.5 16.7 14.0 80 2.0 SSE 11 15 6 8 1009.9 1009.9 0.0
03/11:00pm 17.7 15.8 14.2 80 2.0 SSE 17 22 9 12 1010.0 1010.0 0.0
03/10:30pm 17.7 17.3 15.1 85 1.5 SSE 11 13 6 7 1010.5 1010.5 0.0
03/10:00pm 17.9 16.5 14.4 80 2.0 S 15 19 8 10 1010.7 1010.7 0.0
03/09:30pm 18.3 16.6 13.7 74 2.6 S 15 19 8 10 1010.7 1010.7 0.0
03/09:00pm 18.2 17.3 13.6 74 2.6 S 11 13 6 7 1010.9 1010.9 0.0
03/08:30pm 18.5 18.2 13.2 71 3.0 S 7 11 4 6 1011.1 1011.1 0.0
03/08:00pm 18.6 18.3 13.3 71 3.0 SSE 7 9 4 5 1011.2 1011.2 0.0
03/07:30pm 18.8 17.3 13.1 69 3.2 S 13 17 7 9 1011.1 1011.1 0.0
03/07:00pm 19.1 16.9 13.3 69 3.3 S 17 20 9 11 1010.9 1010.9 0.0
03/06:30pm 20.4 17.5 12.2 59 4.6 S 19 22 10 12 1010.8 1010.8 0.0
03/06:00pm 20.3 17.3 12.1 59 4.6 S 19 22 10 12 1010.7 1010.7 0.0
03/05:30pm 21.3 18.6 11.6 54 5.4 SSE 17 20 9 11 1010.8 1010.8 0.0
03/05:00pm 20.4 17.2 12.0 58 4.7 SSE 20 24 11 13 1010.9 1010.9 0.0
03/04:30pm 20.5 17.0 12.3 59 4.6 SSE 22 28 12 15 1010.8 1010.8 0.0
03/04:00pm 20.6 16.6 11.8 57 4.9 SSE 24 30 13 16 1010.7 1010.7 0.0
03/03:30pm 20.0 16.0 11.9 59 4.5 SSE 24 28 13 15 1011.7 1011.7 0.0
03/03:00pm 21.6 18.2 10.7 50 6.0 S 19 26 10 14 1012.1 1012.1 0.0
03/02:30pm 21.2 18.2 10.6 50 5.8 SSW 17 24 9 13 1012.2 1012.2 0.0
03/02:00pm 20.4 17.0 9.3 49 5.9 SSE 17 22 9 12 1012.2 1012.2 0.0
03/01:30pm 20.4 17.0 7.8 44 6.5 SE 15 20 8 11 1012.5 1012.5 0.0
03/01:00pm 19.7 16.3 9.1 50 5.6 SE 17 22 9 12 1012.5 1012.5 0.0
03/12:30pm 19.6 16.5 8.9 50 5.6 SE 15 20 8 11 1013.0 1013.0 0.0
03/12:00pm 19.1 15.4 9.4 53 5.1 SE 19 26 10 14 1013.2 1013.2 0.0
03/11:30am 19.7 15.8 8.6 48 5.8 ESE 19 22 10 12 1013.4 1013.4 0.0
03/11:00am 18.8 15.0 9.1 53 5.1 ESE 19 24 10 13 1013.5 1013.5 0.0
03/10:30am 17.9 14.0 8.6 54 4.8 ESE 19 26 10 14 1013.6 1013.6 0.0
03/10:00am 17.4 13.6 9.1 58 4.3 ESE 19 24 10 13 1013.7 1013.7 0.0
03/09:30am 17.8 14.3 8.9 56 4.6 ESE 17 22 9 12 1014.2 1014.2 0.0
03/09:00am 16.9 13.1 9.0 59 4.1 E 19 24 10 13 1014.2 1014.2 0.0
03/08:30am 16.4 12.6 9.0 61 3.8 ESE 19 24 10 13 1014.1 1014.1 0.0
03/08:00am 16.3 12.5 9.8 65 3.4 ESE 20 26 11 14 1014.1 1014.1 0.0
03/07:30am 15.6 12.0 9.8 68 3.0 ESE 19 24 10 13 1014.1 1014.1 0.0
03/07:00am 14.8 10.9 9.6 71 2.7 ESE 20 26 11 14 1014.0 1014.0 0.0
03/06:30am 14.2 10.1 8.6 69 2.8 ESE 20 26 11 14 1013.8 1013.8 0.0
03/06:00am 13.6 10.8 8.4 71 2.6 ESE 13 20 7 11 1013.8 1013.8 0.0
03/05:30am 14.0 11.0 9.1 72 2.5 ESE 15 19 8 10 1013.5 1013.5 0.0
03/05:00am 14.0 10.6 9.1 72 2.5 ESE 17 22 9 12 1013.4 1013.4 0.0
03/04:30am 13.9 10.4 8.7 71 2.6 SE 17 24 9 13 1013.3 1013.3 0.0
03/04:00am 13.8 9.9 8.6 71 2.6 SE 19 24 10 13 1013.1 1013.1 0.0
03/03:30am 14.0 10.0 8.2 68 2.9 ESE 19 22 10 12 1013.3 1013.3 0.0
03/03:00am 13.8 9.9 8.6 71 2.6 SE 19 24 10 13 1013.5 1013.5 0.0
03/02:30am 14.2 9.8 7.3 63 3.4 SE 20 26 11 14 1013.5 1013.5 0.0
03/02:00am 14.1 9.4 7.6 65 3.2 SE 22 30 12 16 1013.9 1013.9 0.0
03/01:30am 14.3 9.2 7.6 64 3.3 SE 24 30 13 16 1014.3 1014.3 0.0
03/01:00am 14.3 9.2 7.6 64 3.3 SE 24 32 13 17 1014.3 1014.3 0.0
03/12:30am 14.3 8.9 8.1 66 3.1 SE 26 32 14 17 1014.7 1014.7 0.0
03/12:00am 14.1 9.9 8.1 67 3.0 SE 20 26 11 14 1015.0 1015.0 0.0
 
Date/Time
CDT
Temp
°C
App
Temp
°C
Dew
Point
°C
Rel
Hum
%
Delta-T
°C
Wind Press
QNH
hPa
Press
MSL
hPa
Rain since
9am
mm
Dir  Spd
km/h
Gust
km/h
Spd
kts
Gust
kts
02/11:30pm 14.3 10.1 7.4 63 3.4 SE 19 24 10 13 1015.5 1015.5 0.0
02/11:00pm 14.4 10.1 8.0 65 3.2 SE 20 24 11 13 1015.5 1015.5 0.0
02/10:30pm 14.7 10.8 8.6 67 3.1 SE 19 26 10 14 1015.6 1015.6 0.0
02/10:00pm 14.9 10.3 8.1 64 3.4 SSE 22 28 12 15 1015.3 1015.3 0.0
02/09:30pm 14.9 9.9 8.1 64 3.4 SSE 24 33 13 18 1015.2 1015.2 0.0
02/09:00pm 15.2 9.8 8.0 62 3.6 SSE 26 32 14 17 1015.3 1015.3 0.0
02/08:30pm 15.3 9.3 7.2 58 4.0 SSE 28 35 15 19 1015.3 1015.3 0.0
02/08:00pm 15.5 9.7 7.9 60 3.8 SSE 28 37 15 20 1015.0 1015.0 0.0
02/07:30pm 16.1 10.3 8.0 58 4.1 SSE 28 35 15 19 1014.7 1014.7 0.0
02/07:00pm 16.7 10.9 8.0 56 4.4 SSE 28 35 15 19 1014.4 1014.4 0.0
02/06:30pm 17.0 11.3 8.4 57 4.4 SSE 28 33 15 18 1014.3 1014.3 0.0
02/06:00pm 17.9 12.9 9.5 58 4.4 SSE 26 35 14 19 1014.1 1014.1 0.0
02/05:30pm 18.0 12.6 9.4 57 4.5 SSE 28 35 15 19 1014.0 1014.0 0.0
02/05:00pm 18.3 13.2 9.1 55 4.8 SSE 26 35 14 19 1014.1 1014.1 0.0
02/04:30pm 18.6 13.9 9.3 54 4.9 SSE 24 33 13 18 1014.3 1014.3 0.0
02/04:00pm 19.2 14.0 8.9 51 5.4 S 26 30 14 16 1014.3 1014.3 0.0
02/03:30pm 18.9 14.2 9.4 54 5.0 SSE 24 30 13 16 1014.3 1014.3 0.0
02/03:00pm 18.9 14.1 8.7 51 5.3 S 24 32 13 17 1014.3 1014.3 0.0
02/02:30pm 20.2 16.2 9.0 48 5.9 SSE 20 26 11 14 1014.5 1014.5 0.0
02/02:00pm 19.1 15.1 9.0 52 5.3 SSE 20 26 11 14 1014.7 1014.7 0.0
02/01:30pm 18.8 14.9 8.8 52 5.2 SSE 19 22 10 12 1015.1 1015.1 0.0
02/01:00pm 18.9 15.1 9.2 53 5.1 SSE 19 24 10 13 1014.9 1014.9 0.0
02/12:30pm 18.6 14.9 9.5 55 4.8 SSE 19 24 10 13 1014.8 1014.8 0.0
02/12:00pm 19.1 15.3 9.0 52 5.3 SSE 19 24 10 13 1015.0 1015.0 0.0
02/11:30am 18.7 15.6 8.9 53 5.1 S 15 20 8 11 1014.9 1014.9 0.0
02/11:00am 18.3 14.5 8.9 54 4.9 SSE 19 24 10 13 1014.8 1014.8 0.0
02/10:30am 18.1 14.5 10.0 59 4.3 SSE 19 24 10 13 1014.9 1014.9 0.0
02/10:00am 18.1 15.4 10.2 60 4.2 S 15 22 8 12 1014.7 1014.7 0.0
02/09:30am 17.8 15.1 10.5 62 3.9 S 15 22 8 12 1014.6 1014.6 0.0
02/09:00am 17.9 15.3 10.6 62 3.9 S 15 20 8 11 1014.3 1014.3 0.0

Other Formats:

Comma delimited format used in spreadsheet applications
http://www.bom.gov.au/fwo/IDS60801/IDS60801.94809.axf

JavaScript Object Notation format (JSON) in row-major order
http://www.bom.gov.au/fwo/IDS60801/IDS60801.94809.json